createdAt,value
2022-12-01T00:03:32.964Z,1.26
2022-12-01T00:08:34.708Z,1.22
2022-12-01T00:13:37.180Z,1.40
2022-12-01T00:18:38.948Z,1.32
2022-12-01T00:23:43.853Z,1.39
2022-12-01T00:28:52.560Z,0.95
2022-12-01T00:33:54.799Z,1.04
2022-12-01T00:38:57.504Z,1.00
2022-12-01T00:43:59.153Z,1.38
2022-12-01T00:49:00.862Z,1.43
2022-12-01T00:54:02.526Z,1.06
2022-12-01T00:59:04.215Z,1.06
2022-12-01T01:04:06.645Z,0.89
2022-12-01T01:09:08.311Z,1.05
2022-12-01T01:14:10.197Z,0.93
2022-12-01T01:19:12.426Z,0.99
2022-12-01T01:24:14.083Z,0.94
2022-12-01T01:29:15.745Z,1.18
2022-12-01T01:34:17.401Z,1.09
2022-12-01T01:39:19.333Z,1.10
2022-12-01T01:44:49.168Z,0.86
2022-12-01T01:49:52.206Z,0.93
2022-12-01T01:54:55.733Z,0.70
2022-12-01T02:00:07.520Z,0.70
2022-12-01T02:05:21.425Z,0.75
2022-12-01T02:10:37.964Z,0.72
2022-12-01T02:16:00.961Z,0.84
2022-12-01T02:21:29.477Z,0.96
2022-12-01T02:27:09.485Z,1.21
2022-12-01T02:32:45.965Z,0.89
2022-12-01T02:38:24.131Z,0.72
2022-12-01T02:44:04.988Z,0.62
2022-12-01T02:49:24.082Z,0.58
2022-12-01T02:54:29.932Z,0.74
2022-12-01T02:59:31.634Z,0.62
2022-12-01T03:05:01.517Z,0.83
2022-12-01T03:10:17.873Z,0.99
2022-12-01T03:15:30.557Z,0.82
2022-12-01T03:20:39.680Z,0.87
2022-12-01T03:25:45.306Z,0.81
2022-12-01T03:30:50.850Z,0.93
2022-12-01T03:35:59.798Z,1.11
2022-12-01T03:41:09.435Z,0.94
2022-12-01T03:46:17.773Z,1.27
2022-12-01T03:51:30.495Z,1.02
2022-12-01T03:56:38.665Z,1.00
2022-12-01T04:01:40.477Z,1.21
2022-12-01T04:06:48.891Z,0.76
2022-12-01T04:12:08.780Z,0.59
2022-12-01T04:17:10.543Z,0.57
2022-12-01T04:22:12.212Z,0.65
2022-12-01T04:27:13.958Z,0.72
2022-12-01T04:32:15.815Z,1.05
2022-12-01T04:37:18.058Z,1.01
2022-12-01T04:42:19.754Z,0.53
2022-12-01T04:47:21.418Z,0.79
2022-12-01T04:52:23.126Z,0.76
2022-12-01T04:57:24.791Z,0.60
2022-12-01T05:02:26.521Z,0.55
2022-12-01T05:07:28.362Z,0.55
2022-12-01T05:12:30.365Z,0.65
2022-12-01T05:17:36.741Z,1.00
2022-12-01T05:23:04.368Z,0.93
2022-12-01T05:28:00.574Z,0.97
2022-12-01T05:33:02.249Z,0.99
2022-12-01T05:38:07.723Z,1.43
2022-12-01T05:43:09.947Z,1.19
2022-12-01T05:48:11.635Z,0.98
2022-12-01T05:53:14.719Z,1.25
2022-12-01T05:58:16.403Z,1.50
2022-12-01T06:03:18.140Z,0.58
2022-12-01T06:08:19.831Z,0.75
2022-12-01T06:13:21.612Z,0.88
2022-12-01T06:18:24.225Z,1.05
2022-12-01T06:23:30.199Z,0.92
2022-12-01T06:28:32.527Z,1.27
2022-12-01T06:33:34.595Z,0.87
2022-12-01T06:38:37.182Z,1.14
2022-12-01T06:43:38.958Z,1.00
2022-12-01T06:48:40.712Z,0.89
2022-12-01T06:53:42.420Z,0.73
2022-12-01T06:58:44.107Z,0.77
2022-12-01T07:03:50.338Z,0.39
2022-12-01T07:08:53.155Z,0.83
2022-12-01T07:13:55.992Z,0.67
2022-12-01T07:18:57.743Z,0.97
2022-12-01T07:23:59.414Z,0.59
2022-12-01T07:29:01.098Z,1.02
2022-12-01T07:34:02.863Z,1.07
2022-12-01T07:39:06.606Z,0.95
2022-12-01T07:44:10.577Z,0.94
2022-12-01T07:49:14.907Z,1.25
2022-12-01T07:54:17.717Z,1.57
2022-12-01T07:59:19.456Z,1.56
2022-12-01T08:04:21.207Z,1.23
2022-12-01T08:09:24.550Z,0.99
2022-12-01T08:14:26.249Z,0.92
2022-12-01T08:19:29.353Z,0.98
2022-12-01T08:24:31.061Z,0.99
2022-12-01T08:29:33.211Z,0.95
2022-12-01T08:34:38.736Z,0.66
2022-12-01T08:39:40.481Z,1.15
2022-12-01T08:44:42.239Z,1.33
2022-12-01T08:49:43.985Z,1.41
2022-12-01T08:54:45.919Z,1.06
2022-12-01T08:59:49.793Z,1.39
2022-12-01T09:04:51.908Z,1.29
2022-12-01T09:09:53.619Z,1.21
2022-12-01T09:14:55.327Z,1.06
2022-12-01T09:19:57.036Z,0.97
2022-12-01T09:24:58.749Z,1.00
2022-12-01T09:30:00.456Z,1.22
2022-12-01T09:35:02.119Z,1.32
2022-12-01T09:40:05.794Z,1.45
2022-12-01T09:45:25.730Z,1.35
2022-12-01T09:50:30.101Z,1.67
2022-12-01T09:55:32.269Z,1.62
2022-12-01T10:00:38.195Z,1.75
2022-12-01T10:06:18.556Z,2.13
2022-12-01T10:11:30.077Z,2.13
2022-12-01T10:16:49.677Z,1.83
2022-12-01T10:22:18.840Z,1.94
2022-12-01T10:27:33.323Z,1.43
2022-12-01T10:32:57.693Z,1.84
2022-12-01T10:38:01.922Z,1.47
2022-12-01T10:43:04.060Z,1.53
2022-12-01T10:48:23.087Z,1.50
2022-12-01T10:53:28.911Z,1.44
2022-12-01T10:58:34.441Z,1.61
2022-12-01T11:03:36.944Z,1.72
2022-12-01T11:08:50.710Z,1.20
2022-12-01T11:13:53.922Z,1.28
2022-12-01T11:19:26.580Z,1.23
2022-12-01T11:24:44.299Z,1.44
2022-12-01T11:29:49.695Z,1.65
2022-12-01T11:34:56.924Z,1.67
2022-12-01T11:40:08.345Z,1.79
2022-12-01T11:45:19.141Z,2.02
2022-12-01T11:50:27.429Z,1.87
2022-12-01T11:55:30.760Z,2.08
2022-12-01T12:00:53.346Z,2.19
2022-12-01T12:06:18.239Z,2.36
2022-12-01T12:11:58.933Z,2.07
2022-12-01T12:17:19.523Z,2.02
2022-12-01T12:22:29.344Z,1.84
2022-12-01T12:27:49.354Z,1.87
2022-12-01T12:33:19.017Z,1.57
2022-12-01T12:38:26.370Z,2.14
2022-12-01T12:43:41.035Z,2.03
2022-12-01T12:49:19.128Z,1.58
2022-12-01T12:54:29.921Z,2.02
2022-12-01T12:59:42.032Z,2.03
2022-12-01T13:04:52.899Z,1.79
2022-12-01T13:10:06.507Z,1.98
2022-12-01T13:15:27.808Z,2.04
2022-12-01T13:20:32.123Z,2.23
2022-12-01T13:25:39.609Z,2.15
2022-12-01T13:30:41.441Z,2.08
2022-12-01T13:35:43.253Z,1.82
2022-12-01T13:40:45.025Z,1.60
2022-12-01T13:45:48.521Z,1.90
2022-12-01T13:51:05.011Z,1.69
2022-12-01T13:56:15.491Z,1.47
2022-12-01T14:01:20.767Z,1.85
2022-12-01T14:06:27.672Z,1.68
2022-12-01T14:11:30.865Z,1.78
2022-12-01T14:16:51.682Z,1.77
2022-12-01T14:21:53.425Z,1.90
2022-12-01T14:26:55.569Z,1.72
2022-12-01T14:32:00.033Z,1.49
2022-12-01T14:37:16.313Z,1.51
2022-12-01T14:42:53.423Z,1.54
2022-12-01T14:48:09.423Z,1.81
2022-12-01T14:53:29.391Z,1.54
2022-12-01T14:58:32.122Z,1.15
2022-12-01T15:03:48.895Z,1.12
2022-12-01T15:14:38.596Z,0.98
2022-12-01T15:19:41.532Z,1.22
2022-12-01T15:24:44.107Z,1.23
2022-12-01T15:29:47.098Z,0.99
2022-12-01T15:34:53.000Z,1.07
2022-12-01T15:40:25.587Z,1.11
2022-12-01T15:45:22.422Z,1.32
2022-12-01T15:50:31.168Z,1.26
2022-12-01T15:55:38.890Z,1.04
2022-12-01T16:00:40.723Z,0.98
2022-12-01T16:05:44.629Z,1.04
2022-12-01T16:11:06.348Z,1.33
2022-12-01T16:16:35.911Z,1.08
2022-12-01T16:22:00.076Z,0.99
2022-12-01T16:27:07.715Z,1.00
2022-12-01T16:32:21.075Z,0.95
2022-12-01T16:37:23.747Z,1.16
2022-12-01T16:42:25.423Z,1.18
2022-12-01T16:47:27.125Z,1.28
2022-12-01T16:52:45.552Z,1.22
2022-12-01T16:57:47.634Z,0.81
2022-12-01T17:02:49.516Z,0.96
2022-12-01T17:07:51.845Z,0.95
2022-12-01T17:12:54.747Z,1.03
2022-12-01T17:17:56.413Z,1.35
2022-12-01T17:22:59.105Z,1.31
2022-12-01T17:28:00.907Z,1.11
2022-12-01T17:33:02.582Z,1.51
2022-12-01T17:38:04.521Z,1.39
2022-12-01T17:43:08.223Z,1.27
2022-12-01T17:48:10.810Z,1.54
2022-12-01T17:53:12.488Z,1.83
2022-12-01T17:58:14.396Z,1.75
2022-12-01T18:03:16.353Z,1.54
2022-12-01T18:08:18.050Z,1.62
2022-12-01T18:13:21.541Z,1.57
2022-12-01T18:18:23.572Z,1.31
2022-12-01T18:23:25.886Z,1.42
2022-12-01T18:28:27.563Z,1.76
2022-12-01T18:33:29.256Z,1.56
2022-12-01T18:38:31.151Z,1.75
2022-12-01T18:43:33.609Z,1.58
2022-12-01T18:48:35.619Z,1.76
2022-12-01T18:53:37.535Z,1.78
2022-12-01T18:58:39.972Z,1.51
2022-12-01T19:03:41.657Z,1.56
2022-12-01T19:08:44.566Z,1.64
2022-12-01T19:13:46.620Z,1.77
2022-12-01T19:18:48.557Z,1.87
2022-12-01T19:23:50.867Z,1.57
2022-12-01T19:28:52.769Z,1.93
2022-12-01T19:33:55.030Z,1.98
2022-12-01T19:39:00.466Z,1.64
2022-12-01T19:44:03.180Z,1.38
2022-12-01T19:49:05.727Z,1.61
2022-12-01T19:54:12.930Z,1.50
2022-12-01T19:59:15.047Z,1.47
2022-12-01T20:04:16.717Z,1.43
2022-12-01T20:09:19.118Z,1.39
2022-12-01T20:14:20.987Z,1.52
2022-12-01T20:19:22.782Z,1.88
2022-12-01T20:24:25.414Z,1.92
2022-12-01T20:29:29.520Z,1.61
2022-12-01T20:34:34.226Z,1.37
2022-12-01T20:39:38.193Z,1.65
2022-12-01T20:44:40.479Z,1.88
2022-12-01T20:49:42.255Z,2.04
2022-12-01T20:54:44.802Z,2.15
2022-12-01T20:59:46.456Z,2.19
2022-12-01T21:04:48.339Z,2.50
2022-12-01T21:09:50.274Z,2.10
2022-12-01T21:15:20.986Z,2.31
2022-12-01T21:20:31.112Z,2.22
2022-12-01T21:25:33.573Z,2.02
2022-12-01T21:30:35.274Z,2.12
2022-12-01T21:35:37.004Z,1.85
2022-12-01T21:40:42.332Z,2.07
2022-12-01T21:45:44.411Z,1.84
2022-12-01T21:50:50.855Z,1.89
2022-12-01T21:55:56.188Z,1.94
2022-12-01T22:00:59.459Z,2.08
2022-12-01T22:06:28.171Z,1.99
2022-12-01T22:11:27.091Z,1.72
2022-12-01T22:16:30.066Z,1.89
2022-12-01T22:21:35.191Z,1.86
2022-12-01T22:26:38.195Z,1.65
2022-12-01T22:31:39.901Z,1.83
2022-12-01T22:36:41.814Z,1.83
2022-12-01T22:41:44.285Z,1.68
2022-12-01T22:46:46.010Z,1.75
2022-12-01T22:52:15.192Z,1.91
2022-12-01T22:57:19.747Z,1.66
2022-12-01T23:02:33.234Z,1.67
2022-12-01T23:07:41.502Z,2.01
2022-12-01T23:12:44.907Z,2.00
2022-12-01T23:17:47.428Z,1.94
2022-12-01T23:22:49.094Z,1.91
2022-12-01T23:27:52.968Z,1.91
2022-12-01T23:33:14.374Z,1.91
2022-12-01T23:38:19.908Z,1.93
2022-12-01T23:43:34.717Z,2.14
2022-12-01T23:48:42.504Z,2.09
2022-12-01T23:53:44.548Z,2.23
2022-12-01T23:58:46.451Z,2.10
